Terminal Aerodrome Forecast
Issued by NWS

Home | Current Version | Previous Version | Text Only | Print | Product List | Glossary On
Versions: 1 2 3 4 5 6 7 8 9 10 11 12 13 14 15 16 17 18
730
FTUS43 KILX 282105 AAA
TAFCMI
TAF AMD
KCMI 282105Z 2821/2918 19018G25KT P6SM SCT080 BKN200
     FM290200 19017G23KT P6SM SCT100 BKN200
     FM290400 19014G20KT P6SM VCSH BKN250 WS020/22050KT
     FM291000 20011G17KT P6SM VCSH SCT080 BKN150
     FM291400 21015G22KT P6SM SCT050 BKN120=

USA.gov is the U.S. government's official web portal to all federal, state and local government web resources and services.